Time,TemperatureF,DewpointF,PressureIn,WindDirection,WindDirectionDegrees,WindSpeedMPH,WindSpeedGustMPH,Humidity,HourlyPrecipIn,Conditions,Clouds,dailyrainin,SoftwareType,DateUTC
2013-04-03 00:02:00,51.3,35.0,29.89,NNE,32,8.0,12.0,55,0.00,,,0.00,weatherlink.com 1.10,2013-04-03 06:02:00,
2013-04-03 00:17:00,50.9,36.0,29.89,NNE,29,10.0,13.0,57,0.00,,,0.00,weatherlink.com 1.10,2013-04-03 06:17:00,
2013-04-03 00:32:00,51.1,36.0,29.89,NE,42,9.0,13.0,57,0.00,,,0.00,weatherlink.com 1.10,2013-04-03 06:32:00,
2013-04-03 00:47:00,50.7,36.0,29.89,NNE,26,9.0,12.0,58,0.00,,,0.00,weatherlink.com 1.10,2013-04-03 06:47:00,
2013-04-03 01:02:00,50.9,36.0,29.89,NNW,347,6.0,12.0,58,0.00,,,0.00,weatherlink.com 1.10,2013-04-03 07:02:00,
2013-04-03 01:17:00,50.6,36.0,29.90,NNW,344,6.0,10.0,58,0.00,,,0.00,weatherlink.com 1.10,2013-04-03 07:17:00,
2013-04-03 01:32:00,50.1,36.0,29.90,North,355,4.0,11.0,59,0.00,,,0.00,weatherlink.com 1.10,2013-04-03 07:32:00,
2013-04-03 01:47:00,46.1,35.0,29.91,SSW,208,2.0,4.0,66,0.00,,,0.00,weatherlink.com 1.10,2013-04-03 07:47:00,
2013-04-03 02:02:00,44.7,35.0,29.91,SE,136,0.0,4.0,70,0.00,,,0.00,weatherlink.com 1.10,2013-04-03 08:02:00,
2013-04-03 02:17:00,45.2,36.0,29.91,SE,135,0.0,2.0,69,0.00,,,0.00,weatherlink.com 1.10,2013-04-03 08:17:00,
2013-04-03 02:32:00,45.2,36.0,29.92,ENE,57,4.0,4.0,69,0.00,,,0.00,weatherlink.com 1.10,2013-04-03 08:32:00,
2013-04-03 02:47:00,46.7,36.0,29.92,North,349,2.0,6.0,67,0.00,,,0.00,weatherlink.com 1.10,2013-04-03 08:47:00,
2013-04-03 03:02:00,45.5,36.0,29.92,NNE,26,0.0,7.0,69,0.00,,,0.00,weatherlink.com 1.10,2013-04-03 09:02:00,
2013-04-03 03:17:00,43.0,35.0,29.93,NNE,26,0.0,1.0,72,0.00,,,0.00,weatherlink.com 1.10,2013-04-03 09:17:00,
2013-04-03 03:32:00,40.6,35.0,29.93,ENE,63,0.0,2.0,79,0.00,,,0.00,weatherlink.com 1.10,2013-04-03 09:32:00,
2013-04-03 03:47:00,40.3,35.0,29.94,ENE,63,0.0,2.0,81,0.00,,,0.00,weatherlink.com 1.10,2013-04-03 09:47:00,
2013-04-03 04:02:00,40.5,34.0,29.94,East,101,2.0,3.0,79,0.00,,,0.00,weatherlink.com 1.10,2013-04-03 10:02:00,
2013-04-03 04:17:00,40.9,35.0,29.94,East,96,0.0,2.0,79,0.00,,,0.00,weatherlink.com 1.10,2013-04-03 10:17:00,
2013-04-03 04:32:00,39.6,35.0,29.94,ENE,59,0.0,3.0,82,0.00,,,0.00,weatherlink.com 1.10,2013-04-03 10:32:00,
2013-04-03 04:47:00,38.7,34.0,29.95,ENE,60,2.0,3.0,84,0.00,,,0.00,weatherlink.com 1.10,2013-04-03 10:47:00,
2013-04-03 05:02:00,39.1,34.0,29.95,ENE,73,0.0,0.0,82,0.00,,,0.00,weatherlink.com 1.10,2013-04-03 11:02:00,
2013-04-03 05:17:00,38.5,34.0,29.95,ENE,67,0.0,3.0,83,0.00,,,0.00,weatherlink.com 1.10,2013-04-03 11:17:00,
2013-04-03 05:32:00,38.2,34.0,29.95,ENE,67,0.0,2.0,86,0.00,,,0.00,weatherlink.com 1.10,2013-04-03 11:32:00,
2013-04-03 05:47:00,38.4,35.0,29.96,ENE,67,0.0,0.0,86,0.00,,,0.00,weatherlink.com 1.10,2013-04-03 11:47:00,
2013-04-03 06:03:00,38.0,34.0,29.96,ENE,67,0.0,0.0,86,0.00,,,0.00,weatherlink.com 1.10,2013-04-03 12:03:00,
2013-04-03 06:18:00,37.8,34.0,29.96,ENE,67,0.0,0.0,87,0.00,,,0.00,weatherlink.com 1.10,2013-04-03 12:18:00,
2013-04-03 06:33:00,38.0,35.0,29.97,ENE,67,0.0,0.0,88,0.00,,,0.00,weatherlink.com 1.10,2013-04-03 12:33:00,
2013-04-03 06:48:00,37.6,35.0,29.97,ENE,67,0.0,0.0,89,0.00,,,0.00,weatherlink.com 1.10,2013-04-03 12:48:00,
2013-04-03 07:03:00,37.9,35.0,29.97,ESE,107,1.0,4.0,90,0.00,,,0.00,weatherlink.com 1.10,2013-04-03 13:03:00,
2013-04-03 07:18:00,38.5,36.0,29.97,SSW,194,0.0,2.0,89,0.00,,,0.00,weatherlink.com 1.10,2013-04-03 13:18:00,
2013-04-03 07:33:00,38.8,36.0,29.97,SSW,194,0.0,0.0,88,0.00,,,0.00,weatherlink.com 1.10,2013-04-03 13:33:00,
2013-04-03 07:48:00,39.5,37.0,29.97,ESE,105,0.0,0.0,89,0.00,,,0.00,weatherlink.com 1.10,2013-04-03 13:48:00,
2013-04-03 08:03:00,39.8,36.0,29.97,East,92,0.0,0.0,87,0.00,,,0.00,weatherlink.com 1.10,2013-04-03 14:03:00,
2013-04-03 08:18:00,39.7,37.0,29.98,East,92,0.0,0.0,88,0.00,,,0.00,weatherlink.com 1.10,2013-04-03 14:18:00,
2013-04-03 08:33:00,40.0,37.0,29.98,East,92,0.0,0.0,89,0.00,,,0.00,weatherlink.com 1.10,2013-04-03 14:33:00,
2013-04-03 08:48:00,40.4,37.0,29.98,East,92,0.0,0.0,88,0.00,,,0.00,weatherlink.com 1.10,2013-04-03 14:48:00,
2013-04-03 09:03:00,41.1,38.0,29.98,East,92,0.0,0.0,87,0.00,,,0.00,weatherlink.com 1.10,2013-04-03 15:03:00,
2013-04-03 09:18:00,42.1,38.0,29.98,SW,233,0.0,3.0,85,0.00,,,0.00,weatherlink.com 1.10,2013-04-03 15:18:00,
2013-04-03 09:33:00,43.1,39.0,29.98,SW,233,1.0,3.0,84,0.00,,,0.00,weatherlink.com 1.10,2013-04-03 15:33:00,
2013-04-03 09:48:00,43.8,38.0,29.97,SSW,208,2.0,5.0,81,0.00,,,0.00,weatherlink.com 1.10,2013-04-03 15:48:00,
2013-04-03 10:03:00,45.0,38.0,29.97,SSW,200,2.0,4.0,77,0.00,,,0.00,weatherlink.com 1.10,2013-04-03 16:03:00,
2013-04-03 10:18:00,46.2,39.0,29.97,South,184,2.0,5.0,76,0.00,,,0.00,weatherlink.com 1.10,2013-04-03 16:18:00,
2013-04-03 10:33:00,47.8,38.0,29.97,South,171,3.0,7.0,70,0.00,,,0.00,weatherlink.com 1.10,2013-04-03 16:33:00,
2013-04-03 10:48:00,48.4,39.0,29.97,SW,223,3.0,7.0,69,0.00,,,0.00,weatherlink.com 1.10,2013-04-03 16:48:00,
2013-04-03 11:03:00,49.2,38.0,29.96,SSW,207,0.0,5.0,66,0.00,,,0.00,weatherlink.com 1.10,2013-04-03 17:03:00,
2013-04-03 11:18:00,52.2,39.0,29.95,NNW,336,3.0,5.0,62,0.00,,,0.00,weatherlink.com 1.10,2013-04-03 17:18:00,
2013-04-03 11:33:00,53.6,38.0,29.96,SSW,199,4.0,7.0,57,0.00,,,0.00,weatherlink.com 1.10,2013-04-03 17:33:00,
2013-04-03 11:48:00,54.0,39.0,29.95,NE,54,0.0,5.0,58,0.00,,,0.00,weatherlink.com 1.10,2013-04-03 17:48:00,
2013-04-03 12:03:00,55.7,39.0,29.95,SSE,163,3.0,3.0,54,0.00,,,0.00,weatherlink.com 1.10,2013-04-03 18:03:00,
2013-04-03 12:18:00,56.7,39.0,29.94,South,169,0.0,5.0,51,0.00,,,0.00,weatherlink.com 1.10,2013-04-03 18:18:00,
2013-04-03 13:03:00,59.3,38.0,29.93,SSW,192,5.0,7.0,45,0.00,,,0.00,weatherlink.com 1.10,2013-04-03 19:03:00,
2013-04-03 13:33:00,59.5,36.0,29.92,South,178,0.0,8.0,42,0.00,,,0.00,weatherlink.com 1.10,2013-04-03 19:33:00,
2013-04-03 13:49:00,60.8,36.0,29.92,South,184,7.0,11.0,40,0.00,,,0.00,weatherlink.com 1.10,2013-04-03 19:49:00,
2013-04-03 14:04:00,61.9,35.0,29.91,South,183,9.0,11.0,37,0.00,,,0.00,weatherlink.com 1.10,2013-04-03 20:04:00,
2013-04-03 14:19:00,62.1,35.0,29.90,SSE,163,2.0,11.0,37,0.00,,,0.00,weatherlink.com 1.10,2013-04-03 20:19:00,
2013-04-03 14:34:00,63.2,35.0,29.89,SSE,148,4.0,11.0,35,0.00,,,0.00,weatherlink.com 1.10,2013-04-03 20:34:00,
2013-04-03 14:49:00,62.8,35.0,29.88,SSE,168,5.0,16.0,35,0.00,,,0.00,weatherlink.com 1.10,2013-04-03 20:49:00,
2013-04-03 15:04:00,62.8,35.0,29.88,SSW,210,7.0,17.0,36,0.00,,,0.00,weatherlink.com 1.10,2013-04-03 21:04:00,
2013-04-03 15:19:00,62.3,34.0,29.88,South,185,6.0,14.0,35,0.00,,,0.00,weatherlink.com 1.10,2013-04-03 21:19:00,
2013-04-03 15:34:00,64.0,34.0,29.87,South,184,8.0,15.0,33,0.00,,,0.00,weatherlink.com 1.10,2013-04-03 21:34:00,
2013-04-03 15:49:00,64.8,33.0,29.87,SSE,161,8.0,15.0,31,0.00,,,0.00,weatherlink.com 1.10,2013-04-03 21:49:00,
2013-04-03 16:04:00,64.1,33.0,29.86,WNW,294,7.0,15.0,31,0.00,,,0.00,weatherlink.com 1.10,2013-04-03 22:04:00,
2013-04-03 16:19:00,64.3,34.0,29.86,SW,229,6.0,8.0,32,0.00,,,0.00,weatherlink.com 1.10,2013-04-03 22:19:00,
2013-04-03 16:34:00,63.6,33.0,29.86,SW,232,0.0,5.0,32,0.00,,,0.00,weatherlink.com 1.10,2013-04-03 22:34:00,
2013-04-03 16:49:00,64.2,32.0,29.87,SSW,213,4.0,10.0,30,0.00,,,0.00,weatherlink.com 1.10,2013-04-03 22:49:00,
2013-04-03 17:04:00,64.3,33.0,29.86,SW,222,6.0,12.0,31,0.00,,,0.00,weatherlink.com 1.10,2013-04-03 23:04:00,
2013-04-03 17:19:00,64.1,32.0,29.87,SSW,213,1.0,12.0,30,0.00,,,0.00,weatherlink.com 1.10,2013-04-03 23:19:00,
2013-04-03 17:34:00,64.7,33.0,29.86,SSE,163,4.0,8.0,31,0.00,,,0.00,weatherlink.com 1.10,2013-04-03 23:34:00,
2013-04-03 18:04:00,64.8,33.0,29.86,SSW,211,3.0,7.0,31,0.00,,,0.00,weatherlink.com 1.10,2013-04-04 00:04:00,
2013-04-03 18:19:00,64.8,33.0,29.86,WSW,244,0.0,6.0,30,0.00,,,0.00,weatherlink.com 1.10,2013-04-04 00:19:00,
2013-04-03 18:34:00,65.4,31.0,29.86,NW,306,4.0,9.0,28,0.00,,,0.00,weatherlink.com 1.10,2013-04-04 00:34:00,
2013-04-03 18:49:00,64.6,31.0,29.86,West,263,3.0,16.0,28,0.00,,,0.00,weatherlink.com 1.10,2013-04-04 00:49:00,
2013-04-03 19:04:00,64.0,31.0,29.86,WNW,285,1.0,9.0,29,0.00,,,0.00,weatherlink.com 1.10,2013-04-04 01:04:00,
2013-04-03 19:19:00,63.0,30.0,29.86,West,268,4.0,9.0,29,0.00,,,0.00,weatherlink.com 1.10,2013-04-04 01:19:00,
2013-04-03 19:34:00,62.1,30.0,29.86,WSW,254,0.0,10.0,30,0.00,,,0.00,weatherlink.com 1.10,2013-04-04 01:34:00,
2013-04-03 19:49:00,61.1,30.0,29.86,West,268,0.0,5.0,31,0.00,,,0.00,weatherlink.com 1.10,2013-04-04 01:49:00,
2013-04-03 20:04:00,60.0,31.0,29.86,West,278,0.0,2.0,33,0.00,,,0.00,weatherlink.com 1.10,2013-04-04 02:04:00,
2013-04-03 20:19:00,57.7,31.0,29.85,ENE,69,4.0,6.0,36,0.00,,,0.00,weatherlink.com 1.10,2013-04-04 02:19:00,
2013-04-03 20:34:00,54.8,31.0,29.85,North,360,3.0,8.0,41,0.00,,,0.00,weatherlink.com 1.10,2013-04-04 02:34:00,
2013-04-03 20:49:00,56.0,33.0,29.86,NW,324,0.0,6.0,42,0.00,,,0.00,weatherlink.com 1.10,2013-04-04 02:49:00,
2013-04-03 21:04:00,55.2,33.0,29.86,North,5,4.0,5.0,43,0.00,,,0.00,weatherlink.com 1.10,2013-04-04 03:04:00,
2013-04-03 21:19:00,54.9,33.0,29.86,North,360,4.0,7.0,44,0.00,,,0.00,weatherlink.com 1.10,2013-04-04 03:19:00,
2013-04-03 21:34:00,55.0,33.0,29.86,NNE,13,8.0,11.0,44,0.00,,,0.00,weatherlink.com 1.10,2013-04-04 03:34:00,
2013-04-03 21:49:00,54.1,34.0,29.87,NE,43,7.0,11.0,46,0.00,,,0.00,weatherlink.com 1.10,2013-04-04 03:49:00,
2013-04-03 22:04:00,53.9,34.0,29.87,NNE,32,7.0,12.0,47,0.00,,,0.00,weatherlink.com 1.10,2013-04-04 04:04:00,
2013-04-03 22:19:00,53.7,34.0,29.87,NNE,32,8.0,12.0,48,0.00,,,0.00,weatherlink.com 1.10,2013-04-04 04:19:00,
2013-04-03 22:34:00,53.0,35.0,29.88,NNE,27,9.0,10.0,50,0.00,,,0.00,weatherlink.com 1.10,2013-04-04 04:34:00,
2013-04-03 22:49:00,53.0,35.0,29.88,NNW,345,3.0,12.0,50,0.00,,,0.00,weatherlink.com 1.10,2013-04-04 04:49:00,
2013-04-03 23:04:00,52.2,34.0,29.87,NNE,19,5.0,9.0,50,0.00,,,0.00,weatherlink.com 1.10,2013-04-04 05:04:00,
2013-04-03 23:19:00,51.7,34.0,29.88,NNE,13,5.0,5.0,51,0.00,,,0.00,weatherlink.com 1.10,2013-04-04 05:19:00,
2013-04-03 23:34:00,51.5,34.0,29.87,North,355,6.0,11.0,52,0.00,,,0.00,weatherlink.com 1.10,2013-04-04 05:34:00,
2013-04-03 23:49:00,51.1,34.0,29.88,NNW,343,8.0,9.0,52,0.00,,,0.00,weatherlink.com 1.10,2013-04-04 05:49:00,